Weather History for Warsaw, IN

Change the Weather History Date:

Monday, May 5, 2014

  Actual Average Record
Temperature  
Mean Temperature 50 °F -  
Max Temperature 59 °F 67 °F 89 °F (1949)
Min Temperature 41 °F 45 °F 29 °F (1957)
Degree Days  
Heating Degree Days 15    
Moisture  
Dew Point 33 °F    
Average Humidity 54    
Maximum Humidity 70    
Minimum Humidity 38    
Precipitation  
Precipitation 0.00 in - - ()
Sea Level Pressure  
Sea Level Pressure 29.98 in    
Wind  
Wind Speed 7 mph (East)    
Max Wind Speed 18 mph    
Max Gust Speed 24 mph    
Visibility 10 miles    
Events Rain    
Averages and records for this station are not official NWS values.
T = Trace of Precipitation, MM = Missing Value Source: NWS Daily Summary

Daily Weather History Graph

Daily Weather History Graph

Search for Another Location

Airport:

Trip Planner

Search our weather history database for the weather conditions in past years. The results will help you decide how hot, cold, wet, or windy it might be!

Date:

Astronomy

May. 05, 2014 Rise Set
Actual Time 6:35 AM EDT 8:44 PM EDT
Civil Twilight 6:05 AM EDT 9:15 PM EDT
Nautical Twilight 5:28 AM EDT 9:52 PM EDT
Astronomical Twilight 4:47 AM EDT 10:34 PM EDT
Moon 11:55 AM EDT (5/5) 1:28 AM EDT (5/5)
Length of Visible Light 15h 10m
Length of Day
14h 09m
Waxing Crescent, 36% of the Moon is Illuminated
May 5
Waxing Crescent
May 6
First Quarter
May 14
Full
May 21
Last Quarter
May 28
New

Hourly Weather History & Observations

Time (EDT) Temp. Windchill Dew Point Humidity Pressure Visibility Wind Dir Wind Speed Gust Speed Precip Events Conditions
12:15 AM 41.0 °F 38.0 °F 30.2 °F 65% 30.07 in 10.0 mi NNE 4.6 mph - N/A   Clear
12:35 AM 41.0 °F 39.0 °F 30.2 °F 65% 30.07 in 10.0 mi NNE 3.5 mph - N/A   Clear
12:55 AM 41.0 °F - 32.0 °F 70% 30.07 in 10.0 mi Calm Calm - N/A   Scattered Clouds
1:15 AM 42.8 °F - 32.0 °F 66% 30.06 in 10.0 mi Calm Calm - N/A   Overcast
1:35 AM 42.8 °F - 32.0 °F 66% 30.06 in 10.0 mi Calm Calm - N/A   Overcast
1:55 AM 41.0 °F 37.1 °F 32.0 °F 70% 30.04 in 10.0 mi ENE 5.8 mph - N/A   Scattered Clouds
2:15 AM 42.8 °F 38.6 °F 32.0 °F 66% 30.04 in 10.0 mi NE 6.9 mph - N/A   Clear
2:35 AM 42.8 °F - 32.0 °F 66% 30.04 in 10.0 mi Calm Calm - N/A   Clear
2:55 AM 42.8 °F 38.0 °F 32.0 °F 66% 30.03 in 10.0 mi NE 8.1 mph - N/A   Clear
3:15 AM 42.8 °F 38.6 °F 32.0 °F 66% 30.02 in 10.0 mi ENE 6.9 mph - N/A   Clear
3:35 AM 42.8 °F 38.0 °F 32.0 °F 66% 30.00 in 10.0 mi ENE 8.1 mph - N/A   Clear
3:55 AM 42.8 °F 37.5 °F 32.0 °F 66% 30.00 in 10.0 mi ENE 9.2 mph - N/A   Clear
4:15 AM 44.6 °F 40.7 °F 32.0 °F 61% 30.00 in 10.0 mi East 6.9 mph - N/A   Clear
4:35 AM 44.6 °F 42.2 °F 32.0 °F 61% 30.02 in 10.0 mi East 4.6 mph - N/A   Clear
4:55 AM 42.8 °F 38.6 °F 32.0 °F 66% 30.01 in 10.0 mi ESE 6.9 mph - N/A   Scattered Clouds
5:15 AM 44.6 °F 42.2 °F 32.0 °F 61% 30.04 in 10.0 mi NE 4.6 mph - N/A   Mostly Cloudy
5:35 AM 44.6 °F 40.2 °F 32.0 °F 61% 30.03 in 10.0 mi East 8.1 mph - N/A   Overcast
5:55 AM 44.6 °F 39.2 °F 32.0 °F 61% 30.01 in 10.0 mi East 10.4 mph - N/A   Overcast
6:15 AM 44.6 °F 40.7 °F 32.0 °F 61% 30.01 in 10.0 mi ESE 6.9 mph - N/A   Overcast
6:35 AM 44.6 °F 39.7 °F 32.0 °F 61% 30.00 in 10.0 mi ESE 9.2 mph - N/A   Overcast
6:55 AM 44.6 °F 40.2 °F 32.0 °F 61% 29.98 in 10.0 mi SE 8.1 mph - N/A   Scattered Clouds
7:15 AM 44.6 °F 38.8 °F 32.0 °F 61% 29.97 in 10.0 mi ESE 11.5 mph - N/A   Mostly Cloudy
7:35 AM 44.6 °F 38.8 °F 32.0 °F 61% 29.96 in 10.0 mi ESE 11.5 mph 19.6 mph N/A Rain Light Rain
7:55 AM 46.4 °F 42.9 °F 32.0 °F 57% 29.98 in 10.0 mi ESE 6.9 mph - N/A   Mostly Cloudy
8:15 AM 46.4 °F 43.5 °F 32.0 °F 57% 30.01 in 10.0 mi SE 5.8 mph - N/A   Mostly Cloudy
8:35 AM 46.4 °F 42.4 °F 32.0 °F 57% 30.00 in 10.0 mi SE 8.1 mph - N/A   Overcast
8:55 AM 46.4 °F 42.9 °F 32.0 °F 57% 30.01 in 10.0 mi SE 6.9 mph - N/A Rain Light Rain
9:15 AM 46.4 °F 42.4 °F 32.0 °F 57% 30.02 in 10.0 mi East 8.1 mph - N/A   Overcast
9:35 AM 46.4 °F 43.5 °F 33.8 °F 62% 30.00 in 10.0 mi East 5.8 mph - N/A Rain Light Rain
9:55 AM 46.4 °F 43.5 °F 33.8 °F 62% 30.03 in 10.0 mi East 5.8 mph - N/A Rain Light Rain
10:15 AM 46.4 °F 42.9 °F 35.6 °F 66% 30.01 in 10.0 mi ESE 6.9 mph - N/A Rain Light Rain
10:35 AM 48.2 °F - 35.6 °F 62% 30.01 in 10.0 mi ESE 8.1 mph - N/A   Mostly Cloudy
10:55 AM 51.8 °F - 35.6 °F 54% 30.00 in 10.0 mi ESE 13.8 mph 18.4 mph N/A   Scattered Clouds
11:15 AM 51.8 °F - 35.6 °F 54% 30.00 in 10.0 mi East 13.8 mph - N/A   Mostly Cloudy
11:35 AM 51.8 °F - 33.8 °F 50% 30.00 in 10.0 mi ESE 12.7 mph 17.3 mph N/A   Overcast
11:55 AM 51.8 °F - 33.8 °F 50% 30.00 in 10.0 mi East 12.7 mph - N/A   Overcast
12:15 PM 53.6 °F - 33.8 °F 47% 29.99 in 10.0 mi ESE 11.5 mph 21.9 mph N/A   Overcast
12:35 PM 53.6 °F - 33.8 °F 47% 29.99 in 10.0 mi East 15.0 mph - N/A   Overcast
12:55 PM 55.4 °F - 33.8 °F 44% 29.98 in 10.0 mi East 16.1 mph 21.9 mph N/A   Overcast
1:15 PM 55.4 °F - 33.8 °F 44% 29.97 in 10.0 mi East 15.0 mph 21.9 mph N/A   Overcast
1:35 PM 55.4 °F - 33.8 °F 44% 29.96 in 10.0 mi ENE 18.4 mph - N/A   Overcast
1:55 PM 57.2 °F - 33.8 °F 41% 29.96 in 10.0 mi ENE 18.4 mph - N/A   Overcast
2:15 PM 59.0 °F - 35.6 °F 42% 29.95 in 10.0 mi East 15.0 mph 24.2 mph N/A   Overcast
2:35 PM 59.0 °F - 33.8 °F 39% 29.95 in 10.0 mi East 15.0 mph 21.9 mph N/A   Overcast
2:55 PM 59.0 °F - 33.8 °F 39% 29.94 in 10.0 mi ENE 15.0 mph 24.2 mph N/A   Mostly Cloudy
3:15 PM 59.0 °F - 33.8 °F 39% 29.94 in 10.0 mi East 13.8 mph 20.7 mph N/A   Scattered Clouds
3:35 PM 59.0 °F - 33.8 °F 39% 29.94 in 10.0 mi ENE 15.0 mph 19.6 mph N/A   Clear
3:55 PM 59.0 °F - 33.8 °F 39% 29.94 in 10.0 mi East 10.4 mph 18.4 mph N/A   Clear
4:15 PM 59.0 °F - 33.8 °F 39% 29.93 in 10.0 mi East 13.8 mph - N/A   Clear
4:35 PM 59.0 °F - 33.8 °F 39% 29.92 in 10.0 mi East 13.8 mph 18.4 mph N/A   Clear
4:55 PM 59.0 °F - 33.8 °F 39% 29.92 in 10.0 mi East 12.7 mph - N/A   Clear
5:15 PM 59.0 °F - 33.8 °F 39% 29.92 in 10.0 mi ESE 11.5 mph 18.4 mph N/A   Clear
5:35 PM 59.0 °F - 33.8 °F 39% 29.92 in 10.0 mi East 13.8 mph - N/A   Clear
5:55 PM 57.2 °F - 33.8 °F 41% 29.91 in 10.0 mi East 9.2 mph - N/A   Clear
6:15 PM 57.2 °F - 32.0 °F 38% 29.92 in 10.0 mi East 10.4 mph - N/A   Clear
6:35 PM 57.2 °F - 33.8 °F 41% 29.92 in 10.0 mi East 10.4 mph - N/A   Clear
6:55 PM 57.2 °F - 33.8 °F 41% 29.93 in 10.0 mi ESE 10.4 mph - N/A   Clear
7:15 PM 55.4 °F - 32.0 °F 41% 29.93 in 10.0 mi ESE 9.2 mph - N/A   Clear
7:35 PM 55.4 °F - 33.8 °F 44% 29.93 in 10.0 mi East 8.1 mph - N/A   Clear
7:55 PM 55.4 °F - 33.8 °F 44% 29.93 in 10.0 mi ESE 6.9 mph - N/A   Clear
8:15 PM 53.6 °F - 33.8 °F 47% 29.94 in 10.0 mi ESE 5.8 mph - N/A   Clear
8:35 PM 51.8 °F - 33.8 °F 50% 29.94 in 10.0 mi East 4.6 mph - N/A   Clear
8:55 PM 51.8 °F - 33.8 °F 50% 29.93 in 10.0 mi East 4.6 mph - N/A   Clear
9:15 PM 50.0 °F - 33.8 °F 54% 29.94 in 10.0 mi NE 3.5 mph - N/A   Clear
9:35 PM 50.0 °F - 35.6 °F 58% 29.93 in 10.0 mi ENE 4.6 mph - N/A   Clear
9:55 PM 50.0 °F - 35.6 °F 58% 29.94 in 10.0 mi East 4.6 mph - N/A   Clear
10:15 PM 50.0 °F - 35.6 °F 58% 29.95 in 10.0 mi East 3.5 mph - N/A   Clear
10:35 PM 50.0 °F - 33.8 °F 54% 29.95 in 10.0 mi East 3.5 mph - N/A   Clear
10:55 PM 46.4 °F 43.5 °F 35.6 °F 66% 29.96 in 10.0 mi ENE 5.8 mph - N/A   Clear
11:15 PM 46.4 °F 43.5 °F 35.6 °F 66% 29.95 in 10.0 mi ENE 5.8 mph - N/A   Clear
11:35 PM 46.4 °F 42.4 °F 35.6 °F 66% 29.95 in 10.0 mi East 8.1 mph - N/A   Clear
11:55 PM 46.4 °F 42.9 °F 33.8 °F 62% 29.96 in 10.0 mi East 6.9 mph - N/A   Clear